| Date | Time | Temp. (oF) | Dew Point (oF) | Rel. Hum. (%) | Press. (in.) | Wind Dir. | Wind Speed (mph) | Hourly Rainfall (in.) |
|
|---|---|---|---|---|---|---|---|---|---|
| 1 | 07/09 | 00:00 | 76 | 70 | 82 | 29.91 | WSW | 0 | 0.00 |
| 2 | 07/08 | 23:00 | 77 | 69 | 79 | 29.91 | SW | 0 | 0.00 |
| 3 | 07/08 | 22:00 | 77 | 69 | 78 | 29.91 | SE | 0 | 0.00 |
| 4 | 07/08 | 21:00 | 78 | 69 | 75 | 29.89 | ENE | 0 | 0.00 |
| 5 | 07/08 | 20:00 | 80 | 69 | 71 | 29.88 | ESE | 4 | 0.00 |
| 6 | 07/08 | 19:00 | 84 | 70 | 64 | 29.86 | NNE | 5 | 0.00 |
| 7 | 07/08 | 18:00 | 84 | 69 | 62 | 29.84 | NNE | 4 | 0.00 |
| 8 | 07/08 | 17:00 | 84 | 70 | 64 | 29.85 | WNW | 7 | 0.00 |
| 9 | 07/08 | 16:00 | 83 | 69 | 63 | 29.87 | WNW | 5 | 0.00 |
| 10 | 07/08 | 15:00 | 82 | 69 | 66 | 29.88 | SW | 4 | 0.00 |
| 11 | 07/08 | 14:00 | 81 | 68 | 67 | 29.89 | SSW | 6 | 0.00 |
| 12 | 07/08 | 13:00 | 81 | 68 | 65 | 29.90 | SSW | 2 | 0.00 |
| 13 | 07/08 | 12:00 | 80 | 67 | 67 | 29.90 | SSW | 4 | 0.00 |
| 14 | 07/08 | 11:00 | 80 | 68 | 68 | 29.91 | WNW | 6 | 0.00 |
| 15 | 07/08 | 10:00 | 79 | 67 | 69 | 29.91 | WSW | 8 | 0.00 |
| 16 | 07/08 | 09:00 | 78 | 67 | 70 | 29.92 | SW | 4 | 0.00 |
| 17 | 07/08 | 08:00 | 76 | 67 | 76 | 29.91 | SSW | 3 | 0.00 |
| 18 | 07/08 | 07:00 | 74 | 66 | 78 | 29.91 | SSW | 3 | 0.00 |
| 19 | 07/08 | 06:00 | 74 | 66 | 77 | 29.89 | SSW | 0 | 0.00 |
| 20 | 07/08 | 05:00 | 74 | 67 | 79 | 29.88 | SW | 4 | 0.00 |
| 21 | 07/08 | 04:00 | 74 | 67 | 79 | 29.87 | SW | 2 | 0.00 |
| 22 | 07/08 | 03:00 | 74 | 66 | 77 | 29.88 | SSW | 3 | 0.00 |
| 23 | 07/08 | 02:00 | 75 | 66 | 75 | 29.88 | SSW | 3 | 0.00 |
| 24 | 07/08 | 01:00 | 75 | 65 | 73 | 29.89 | SW | 4 | 0.00 |